createdAt,value
2022-11-21T00:02:52.613Z,-1.00
2022-11-21T00:05:55.888Z,-1.00
2022-11-21T00:08:59.151Z,-1.00
2022-11-21T00:12:04.011Z,-1.00
2022-11-21T00:15:08.509Z,-1.00
2022-11-21T00:18:12.937Z,-1.00
2022-11-21T00:21:18.148Z,-1.00
2022-11-21T00:24:21.511Z,-0.90
2022-11-21T00:27:26.187Z,-0.90
2022-11-21T00:30:29.504Z,-0.90
2022-11-21T00:33:33.112Z,-0.80
2022-11-21T00:36:36.884Z,-0.80
2022-11-21T00:39:40.278Z,-0.80
2022-11-21T00:42:45.116Z,-0.70
2022-11-21T00:45:48.466Z,-0.70
2022-11-21T00:48:51.799Z,-0.70
2022-11-21T00:51:55.319Z,-0.70
2022-11-21T00:54:58.632Z,-0.70
2022-11-21T00:58:03.382Z,-0.80
2022-11-21T01:01:08.037Z,-0.80
2022-11-21T01:04:11.405Z,-0.80
2022-11-21T01:07:15.229Z,-0.80
2022-11-21T01:10:18.702Z,-0.80
2022-11-21T01:13:23.497Z,-0.90
2022-11-21T01:16:29.107Z,-0.90
2022-11-21T01:19:32.429Z,-0.90
2022-11-21T01:22:35.727Z,-0.90
2022-11-21T01:25:39.126Z,-0.80
2022-11-21T01:28:44.173Z,-0.80
2022-11-21T01:31:47.390Z,-0.80
2022-11-21T01:34:50.586Z,-0.30
2022-11-21T01:37:53.805Z,-0.70
2022-11-21T01:40:57.094Z,-0.70
2022-11-21T01:44:02.170Z,-0.60
2022-11-21T01:47:05.396Z,0.00
2022-11-21T01:50:12.967Z,-0.70
2022-11-21T01:53:16.457Z,-0.70
2022-11-21T01:56:19.956Z,-0.50
2022-11-21T01:59:28.625Z,-0.50
2022-11-21T02:02:34.930Z,-0.60
2022-11-21T02:05:40.173Z,-0.60
2022-11-21T02:08:45.036Z,-0.20
2022-11-21T02:11:52.741Z,-0.60
2022-11-21T02:14:58.661Z,-0.70
2022-11-21T02:18:01.858Z,-0.70
2022-11-21T02:21:12.914Z,-0.70
2022-11-21T02:24:22.962Z,-0.70
2022-11-21T02:27:27.647Z,-0.60
2022-11-21T02:30:32.715Z,-0.70
2022-11-21T02:33:36.002Z,-0.60
2022-11-21T02:36:43.112Z,-0.60
2022-11-21T02:39:48.588Z,-0.60
2022-11-21T02:43:01.176Z,-0.60
2022-11-21T02:46:04.452Z,-0.40
2022-11-21T02:49:10.335Z,-0.60
2022-11-21T02:52:13.565Z,-0.60
2022-11-21T02:55:16.860Z,0.00
2022-11-21T02:58:21.520Z,-0.60
2022-11-21T03:01:25.002Z,-0.60
2022-11-21T03:04:29.234Z,-0.60
2022-11-21T03:07:32.857Z,-0.60
2022-11-21T03:10:36.128Z,-0.50
2022-11-21T03:13:40.731Z,-0.60
2022-11-21T03:16:43.913Z,0.20
2022-11-21T03:19:47.328Z,-0.60
2022-11-21T03:22:50.743Z,0.30
2022-11-21T03:25:53.943Z,-0.60
2022-11-21T03:28:58.500Z,-0.60
2022-11-21T03:32:01.714Z,-0.60
2022-11-21T03:35:05.363Z,-0.20
2022-11-21T03:38:08.633Z,-0.60
2022-11-21T03:41:25.701Z,-0.60
2022-11-21T03:44:31.267Z,-0.60
2022-11-21T03:47:34.581Z,-0.50
2022-11-21T03:50:37.815Z,-0.60
2022-11-21T03:53:41.094Z,-0.60
2022-11-21T03:56:44.316Z,-0.60
2022-11-21T03:59:48.898Z,-0.60
2022-11-21T04:02:55.763Z,-0.60
2022-11-21T04:05:59.521Z,-0.60
2022-11-21T04:09:05.958Z,-0.60
2022-11-21T04:12:09.748Z,-0.40
2022-11-21T04:15:14.426Z,-0.60
2022-11-21T04:18:19.025Z,-0.60
2022-11-21T04:21:23.063Z,-0.60
2022-11-21T04:24:27.314Z,-0.60
2022-11-21T04:27:31.452Z,-0.60
2022-11-21T04:30:36.866Z,-0.60
2022-11-21T04:33:40.832Z,-0.60
2022-11-21T04:36:48.123Z,-0.40
2022-11-21T04:39:51.356Z,-0.60
2022-11-21T04:42:55.175Z,-0.50
2022-11-21T04:46:02.186Z,-0.50
2022-11-21T04:49:05.427Z,-0.40
2022-11-21T04:52:09.006Z,-0.50
2022-11-21T04:55:12.278Z,-0.50
2022-11-21T04:58:15.629Z,-0.60
2022-11-21T05:01:20.583Z,-0.50
2022-11-21T05:04:23.828Z,-0.50
2022-11-21T05:07:27.299Z,0.20
2022-11-21T05:10:30.737Z,0.20
2022-11-21T05:13:32.854Z,-0.20
2022-11-21T05:16:37.429Z,-0.60
2022-11-21T05:19:40.796Z,-0.30
2022-11-21T05:22:45.819Z,-0.40
2022-11-21T05:25:49.019Z,-0.30
2022-11-21T05:28:52.367Z,-0.60
2022-11-21T05:31:56.969Z,-0.60
2022-11-21T05:35:00.248Z,-0.60
2022-11-21T05:38:03.868Z,-0.60
2022-11-21T05:41:07.134Z,0.00
2022-11-21T05:44:10.324Z,0.00
2022-11-21T05:47:14.947Z,0.50
2022-11-21T05:50:18.636Z,-0.50
2022-11-21T05:53:22.075Z,-0.50
2022-11-21T05:56:25.369Z,0.60
2022-11-21T05:59:28.619Z,-0.50
2022-11-21T06:02:54.241Z,0.20
2022-11-21T06:06:02.892Z,-0.50
2022-11-21T06:09:06.526Z,0.30
2022-11-21T06:12:09.707Z,0.10
2022-11-21T06:15:12.947Z,0.40
2022-11-21T06:18:17.657Z,0.50
2022-11-21T06:21:23.307Z,-0.50
2022-11-21T06:24:26.587Z,-0.50
2022-11-21T06:27:30.455Z,-0.20
2022-11-21T06:30:34.257Z,-0.50
2022-11-21T06:33:40.063Z,-0.50
2022-11-21T06:36:44.789Z,-0.50
2022-11-21T06:39:48.744Z,-0.30
2022-11-21T06:42:51.950Z,-0.10
2022-11-21T06:45:58.906Z,0.20
2022-11-21T06:49:03.973Z,0.50
2022-11-21T06:52:07.136Z,-1.00
2022-11-21T06:55:11.634Z,-0.60
2022-11-21T06:58:14.843Z,0.10
2022-11-21T07:01:18.216Z,-0.60
2022-11-21T07:04:22.855Z,-0.30
2022-11-21T07:07:26.295Z,0.10
2022-11-21T07:10:30.604Z,-0.20
2022-11-21T07:13:34.302Z,-0.60
2022-11-21T07:16:37.749Z,-0.60
2022-11-21T07:19:43.073Z,0.20
2022-11-21T07:22:46.206Z,-0.50
2022-11-21T07:25:49.533Z,0.20
2022-11-21T07:28:52.886Z,-0.50
2022-11-21T07:31:56.420Z,-0.60
2022-11-21T07:35:00.966Z,-0.40
2022-11-21T07:38:05.470Z,-0.10
2022-11-21T07:41:08.769Z,-0.60
2022-11-21T07:44:12.064Z,-0.60
2022-11-21T07:47:15.375Z,0.60
2022-11-21T07:50:20.047Z,0.00
2022-11-21T07:53:24.050Z,0.20
2022-11-21T07:56:27.528Z,-0.40
2022-11-21T07:59:30.958Z,-0.30
2022-11-21T08:02:34.325Z,0.20
2022-11-21T08:05:39.712Z,-0.20
2022-11-21T08:08:43.372Z,-0.10
2022-11-21T08:11:46.560Z,0.20
2022-11-21T08:14:49.968Z,1.00
2022-11-21T08:17:53.209Z,0.40
2022-11-21T08:20:57.982Z,0.00
2022-11-21T08:24:02.990Z,0.20
2022-11-21T08:27:06.355Z,0.20
2022-11-21T08:30:11.591Z,0.60
2022-11-21T08:33:14.836Z,0.30
2022-11-21T08:36:19.486Z,0.30
2022-11-21T08:39:22.785Z,0.50
2022-11-21T08:42:26.192Z,0.20
2022-11-21T08:45:29.930Z,0.30
2022-11-21T08:48:33.244Z,0.40
2022-11-21T08:51:37.902Z,0.40
2022-11-21T08:54:41.619Z,0.40
2022-11-21T08:57:44.942Z,0.60
2022-11-21T09:00:48.403Z,0.60
2022-11-21T09:03:51.678Z,0.80
2022-11-21T09:06:56.358Z,0.90
2022-11-21T09:09:59.572Z,1.10
2022-11-21T09:13:02.841Z,1.20
2022-11-21T09:16:23.716Z,1.40
2022-11-21T09:19:28.783Z,1.40
2022-11-21T09:22:33.757Z,1.50
2022-11-21T09:25:37.051Z,1.40
2022-11-21T09:28:41.615Z,1.50
2022-11-21T09:31:46.157Z,1.40
2022-11-21T09:34:49.556Z,1.40
2022-11-21T09:37:54.532Z,1.60
2022-11-21T09:41:32.457Z,1.40
2022-11-21T09:44:59.690Z,1.50
2022-11-21T09:48:09.727Z,1.50
2022-11-21T09:51:18.523Z,1.70
2022-11-21T09:54:28.229Z,2.00
2022-11-21T09:57:35.614Z,2.10
2022-11-21T10:00:39.020Z,2.20
2022-11-21T10:03:45.212Z,2.20
2022-11-21T10:06:56.937Z,2.20
2022-11-21T10:10:27.572Z,2.40
2022-11-21T10:13:44.144Z,2.40
2022-11-21T10:16:55.470Z,2.60
2022-11-21T10:20:23.576Z,2.80
2022-11-21T10:23:40.350Z,3.10
2022-11-21T10:26:52.990Z,3.10
2022-11-21T10:30:01.247Z,3.20
2022-11-21T10:33:06.967Z,3.50
2022-11-21T10:36:17.586Z,3.60
2022-11-21T10:39:25.886Z,3.70
2022-11-21T10:42:37.003Z,4.30
2022-11-21T10:45:40.910Z,4.30
2022-11-21T10:48:44.201Z,4.80
2022-11-21T10:51:52.257Z,5.10
2022-11-21T10:55:12.012Z,5.10
2022-11-21T10:58:20.281Z,4.90
2022-11-21T11:01:29.879Z,4.70
2022-11-21T11:04:42.874Z,5.10
2022-11-21T11:08:02.394Z,5.80
2022-11-21T11:11:08.744Z,6.20
2022-11-21T11:14:16.989Z,6.00
2022-11-21T11:17:29.469Z,6.30
2022-11-21T11:20:37.812Z,6.20
2022-11-21T11:23:41.094Z,6.30
2022-11-21T11:26:53.533Z,5.90
2022-11-21T11:29:58.293Z,5.50
2022-11-21T11:33:01.607Z,5.30
2022-11-21T11:36:17.088Z,5.40
2022-11-21T11:39:32.193Z,5.60
2022-11-21T11:43:07.234Z,5.50
2022-11-21T11:46:49.484Z,5.20
2022-11-21T11:50:15.480Z,5.30
2022-11-21T11:53:21.410Z,5.00
2022-11-21T11:56:28.647Z,4.80
2022-11-21T11:59:38.457Z,4.70
2022-11-21T12:02:52.892Z,4.80
2022-11-21T12:06:08.839Z,4.70
2022-11-21T12:09:22.191Z,4.80
2022-11-21T12:12:34.946Z,4.80
2022-11-21T12:15:51.233Z,4.80
2022-11-21T12:18:59.866Z,4.80
2022-11-21T12:22:06.426Z,4.40
2022-11-21T12:25:12.972Z,4.00
2022-11-21T12:28:31.852Z,4.00
2022-11-21T12:31:44.993Z,3.80
2022-11-21T12:35:19.380Z,3.80
2022-11-21T12:38:39.444Z,3.70
2022-11-21T12:42:11.748Z,3.70
2022-11-21T12:45:28.909Z,3.60
2022-11-21T12:49:07.099Z,3.30
2022-11-21T12:52:38.310Z,3.30
2022-11-21T12:55:42.622Z,3.00
2022-11-21T12:58:52.904Z,3.00
2022-11-21T13:02:04.044Z,2.90
2022-11-21T13:05:13.771Z,2.90
2022-11-21T13:08:24.627Z,2.90
2022-11-21T13:11:52.990Z,2.90
2022-11-21T13:15:05.592Z,2.70
2022-11-21T13:18:21.222Z,2.50
2022-11-21T13:21:42.794Z,2.40
2022-11-21T13:25:01.871Z,2.30
2022-11-21T13:28:38.234Z,2.10
2022-11-21T13:31:42.148Z,1.80
2022-11-21T13:34:45.425Z,1.70
2022-11-21T13:38:02.903Z,1.50
2022-11-21T13:41:26.356Z,1.30
2022-11-21T13:44:40.610Z,1.20
2022-11-21T13:48:30.548Z,1.20
2022-11-21T13:51:53.671Z,1.20
2022-11-21T13:55:31.646Z,1.20
2022-11-21T13:58:55.180Z,1.30
2022-11-21T14:02:34.715Z,1.30
2022-11-21T14:05:59.721Z,1.20
2022-11-21T14:09:25.622Z,1.20
2022-11-21T14:12:35.198Z,1.20
2022-11-21T14:15:48.801Z,1.00
2022-11-21T14:18:52.770Z,0.90
2022-11-21T14:21:56.545Z,0.80
2022-11-21T14:25:01.161Z,0.80
2022-11-21T14:28:08.318Z,0.70
2022-11-21T14:31:14.421Z,0.70
2022-11-21T14:34:26.789Z,0.60
2022-11-21T14:37:30.468Z,0.60
2022-11-21T14:40:33.954Z,0.60
2022-11-21T14:43:38.062Z,0.60
2022-11-21T14:46:43.793Z,0.50
2022-11-21T14:49:51.772Z,0.50
2022-11-21T14:52:58.235Z,0.40
2022-11-21T14:56:02.705Z,0.50
2022-11-21T14:59:19.280Z,0.40
2022-11-21T15:02:26.250Z,0.40
2022-11-21T15:06:01.982Z,0.50
2022-11-21T15:12:29.123Z,0.40
2022-11-21T15:15:35.897Z,0.30
2022-11-21T15:18:42.775Z,0.30
2022-11-21T15:21:47.112Z,0.30
2022-11-21T15:24:50.816Z,0.30
2022-11-21T15:28:10.046Z,0.20
2022-11-21T15:31:18.300Z,0.20
2022-11-21T15:34:36.727Z,0.10
2022-11-21T15:37:50.159Z,0.10
2022-11-21T15:41:10.568Z,0.10
2022-11-21T15:44:22.932Z,0.10
2022-11-21T15:47:26.774Z,0.20
2022-11-21T15:50:31.706Z,0.10
2022-11-21T15:53:35.584Z,0.10
2022-11-21T15:56:40.340Z,0.10
2022-11-21T15:59:43.676Z,0.20
2022-11-21T16:02:47.454Z,0.20
2022-11-21T16:05:52.448Z,0.10
2022-11-21T16:08:55.931Z,0.10
2022-11-21T16:11:59.850Z,0.20
2022-11-21T16:15:06.157Z,0.10
2022-11-21T16:18:10.222Z,0.10
2022-11-21T16:21:15.325Z,0.10
2022-11-21T16:24:19.403Z,0.10
2022-11-21T16:27:22.961Z,0.00
2022-11-21T16:30:26.457Z,0.00
2022-11-21T16:33:30.687Z,0.00
2022-11-21T16:36:35.389Z,0.00
2022-11-21T16:39:40.577Z,0.10
2022-11-21T16:42:44.322Z,0.10
2022-11-21T16:45:48.100Z,0.10
2022-11-21T16:49:00.544Z,0.10
2022-11-21T16:52:07.323Z,0.20
2022-11-21T16:55:11.088Z,0.10
2022-11-21T16:58:14.783Z,0.10
2022-11-21T17:01:20.592Z,0.10
2022-11-21T17:04:24.046Z,0.10
2022-11-21T17:07:28.794Z,0.10
2022-11-21T17:10:34.252Z,0.20
2022-11-21T17:13:37.856Z,0.10
2022-11-21T17:16:41.924Z,0.20
2022-11-21T17:19:45.512Z,0.20
2022-11-21T17:22:50.181Z,0.10
2022-11-21T17:25:53.461Z,0.10
2022-11-21T17:28:58.309Z,0.00
2022-11-21T17:32:01.691Z,0.00
2022-11-21T17:35:05.557Z,0.40
2022-11-21T17:38:10.456Z,0.10
2022-11-21T17:41:14.918Z,0.00
2022-11-21T17:44:18.373Z,0.00
2022-11-21T17:47:22.183Z,0.00
2022-11-21T17:50:25.860Z,0.00
2022-11-21T17:53:31.923Z,0.00
2022-11-21T17:56:42.347Z,-0.10
2022-11-21T17:59:49.160Z,0.00
2022-11-21T18:02:52.489Z,0.00
2022-11-21T18:06:02.147Z,0.10
2022-11-21T18:09:08.639Z,-0.10
2022-11-21T18:12:12.286Z,0.00
2022-11-21T18:15:15.685Z,0.00
2022-11-21T18:18:19.121Z,0.00
2022-11-21T18:21:25.071Z,-0.10
2022-11-21T18:24:30.899Z,-0.20
2022-11-21T18:27:34.514Z,-0.10
2022-11-21T18:30:38.590Z,-0.10
2022-11-21T18:33:43.255Z,-0.10
2022-11-21T18:36:47.751Z,0.00
2022-11-21T18:39:52.596Z,-0.10
2022-11-21T18:42:56.018Z,0.00
2022-11-21T18:46:04.034Z,0.00
2022-11-21T18:49:08.491Z,-0.10
2022-11-21T18:52:12.334Z,-0.10
2022-11-21T18:55:17.261Z,-0.10
2022-11-21T18:58:20.735Z,-0.10
2022-11-21T19:01:25.810Z,-0.10
2022-11-21T19:04:29.232Z,-0.10
2022-11-21T19:07:32.588Z,-0.20
2022-11-21T19:10:43.653Z,-0.20
2022-11-21T19:13:47.848Z,-0.30
2022-11-21T19:16:51.694Z,-0.20
2022-11-21T19:19:58.850Z,-0.30
2022-11-21T19:23:02.466Z,-0.20
2022-11-21T19:26:08.881Z,-0.20
2022-11-21T19:29:13.553Z,-0.20
2022-11-21T19:32:16.960Z,-0.20
2022-11-21T19:35:20.609Z,-0.20
2022-11-21T19:38:24.009Z,-0.20
2022-11-21T19:41:30.660Z,-0.20
2022-11-21T19:44:34.869Z,-0.30
2022-11-21T19:47:38.159Z,-0.20
2022-11-21T19:50:47.728Z,-0.20
2022-11-21T19:53:53.351Z,-0.20
2022-11-21T19:56:58.127Z,-0.20
2022-11-21T20:00:01.419Z,0.10
2022-11-21T20:03:13.627Z,-0.30
2022-11-21T20:06:18.605Z,-0.20
2022-11-21T20:09:23.007Z,-0.20
2022-11-21T20:12:28.453Z,-0.20
2022-11-21T20:15:31.801Z,-0.20
2022-11-21T20:18:35.691Z,-0.20
2022-11-21T20:21:40.154Z,-0.20
2022-11-21T20:24:50.284Z,-0.20
2022-11-21T20:27:56.326Z,-0.20
2022-11-21T20:31:08.290Z,-0.20
2022-11-21T20:34:13.597Z,-0.20
2022-11-21T20:37:16.986Z,-0.20
2022-11-21T20:40:20.304Z,-0.20
2022-11-21T20:43:52.626Z,-0.20
2022-11-21T20:46:56.154Z,-0.10
2022-11-21T20:49:59.544Z,-0.10
2022-11-21T20:56:27.627Z,-0.10
2022-11-21T20:59:32.893Z,-0.10
2022-11-21T21:02:36.434Z,-0.10
2022-11-21T21:05:40.225Z,-0.10
2022-11-21T21:08:44.851Z,-0.10
2022-11-21T21:11:53.005Z,-0.10
2022-11-21T21:14:57.833Z,-0.10
2022-11-21T21:18:01.269Z,0.00
2022-11-21T21:21:16.970Z,0.40
2022-11-21T21:24:20.844Z,-0.10
2022-11-21T21:27:24.414Z,0.60
2022-11-21T21:30:29.147Z,-0.20
2022-11-21T21:33:32.426Z,-0.10
2022-11-21T21:36:36.234Z,-0.10
2022-11-21T21:39:39.973Z,-0.10
2022-11-21T21:42:43.307Z,0.00
2022-11-21T21:45:47.942Z,0.00
2022-11-21T21:48:54.637Z,0.00
2022-11-21T21:51:57.911Z,0.00
2022-11-21T21:55:01.115Z,0.70
2022-11-21T21:58:04.468Z,0.00
2022-11-21T22:01:12.190Z,0.70
2022-11-21T22:04:15.775Z,0.00
2022-11-21T22:07:18.974Z,0.20
2022-11-21T22:10:22.149Z,0.00
2022-11-21T22:13:25.387Z,0.10
2022-11-21T22:16:31.174Z,0.00
2022-11-21T22:19:34.416Z,0.50
2022-11-21T22:22:37.876Z,0.10
2022-11-21T22:25:41.392Z,0.60
2022-11-21T22:28:45.329Z,0.10
2022-11-21T22:31:50.896Z,0.00
2022-11-21T22:34:54.301Z,0.00
2022-11-21T22:37:57.864Z,0.40
2022-11-21T22:41:05.016Z,0.00
2022-11-21T22:44:10.192Z,0.10
2022-11-21T22:47:15.116Z,0.10
2022-11-21T22:50:18.383Z,0.10
2022-11-21T22:53:21.700Z,0.10
2022-11-21T22:56:25.858Z,0.20
2022-11-21T22:59:29.065Z,0.40
2022-11-21T23:02:35.434Z,0.10
2022-11-21T23:05:38.662Z,0.10
2022-11-21T23:08:42.510Z,0.60
2022-11-21T23:11:45.892Z,0.10
2022-11-21T23:14:49.167Z,0.10
2022-11-21T23:17:54.050Z,0.10
2022-11-21T23:20:57.652Z,0.10
2022-11-21T23:24:00.880Z,0.10
2022-11-21T23:27:04.374Z,0.10
2022-11-21T23:30:09.340Z,0.00
2022-11-21T23:33:13.973Z,0.10
2022-11-21T23:36:17.308Z,0.10
2022-11-21T23:39:20.630Z,0.10
2022-11-21T23:42:23.844Z,0.10
2022-11-21T23:45:27.062Z,0.70
2022-11-21T23:48:31.655Z,0.10
2022-11-21T23:51:35.073Z,0.10
2022-11-21T23:54:38.319Z,0.10
2022-11-21T23:57:41.536Z,0.10
